Hallieford, Virginia
Current Conditions -  °F | °C
As of 3:15 PM on Saturday 25 Oct 2014 (Local Time) from KW75 Reporting Station
Clear Clear  
Wind Chill: 70°   Ceiling: Unl
Heat Index: 70°   Visibility: 10mi
Dew Point: 45°   Wind: 5mph
Humidity: 41%   Direction: 250°WSW
Pressure: 29.85"   Gusts: NA
Location:  37.49°N, 76.34°W
Report Text: KW75 251915Z AUTO 25004KT 10SM CLR 21/07 A2985 RMK AO1 T02100072
Loading
Personal Weather Stations






























Interactive Weather Map
Tropical Storm Tracking
New forecast layout! Learn more

10-Day Weather Forecast

Advertisements
Track Severe Weather on mobile